Time;durP1;ratioP1;P1;durP2;ratioP2;P2;SDS_P1;SDS_P2;PMS_P1;PMS_P2;Temp;Humidity;BMP_temperature;BMP_pressure;BME280_temperature;BME280_humidity;BME280_pressure;Samples;Min_cycle;Max_cycle;Signal;HPM_P1;HPM_P2
2022/11/03 00:01:42;;;;;;;22.73;14.00;;;3.40;99.90;;;;;;5097699;28;20201;-83
2022/11/03 00:04:11;;;;;;;26.27;15.03;;;3.50;99.90;;;;;;5093672;28;20704;-83
2022/11/03 00:06:39;;;;;;;28.70;15.13;;;3.50;99.90;;;;;;5094571;28;20202;-83
2022/11/03 00:09:07;;;;;;;27.33;14.33;;;3.50;99.90;;;;;;5096032;28;20225;-82
2022/11/03 00:11:35;;;;;;;35.47;17.17;;;3.50;99.90;;;;;;5094098;28;20187;-83
2022/11/03 00:14:03;;;;;;;32.73;17.77;;;3.40;99.90;;;;;;5092762;28;20221;-83
2022/11/03 00:16:30;;;;;;;34.00;17.50;;;3.40;99.90;;;;;;5091678;28;20228;-83
2022/11/03 00:18:58;;;;;;;31.70;18.30;;;3.40;99.90;;;;;;5094691;28;20216;-83
2022/11/03 00:21:25;;;;;;;37.23;17.77;;;3.40;99.90;;;;;;5093547;28;20177;-83
2022/11/03 00:23:51;;;;;;;23.40;14.83;;;3.40;99.90;;;;;;5092992;28;20201;-83
2022/11/03 00:26:20;;;;;;;23.53;15.87;;;3.20;99.90;;;;;;5090159;28;20275;-83
2022/11/03 00:28:48;;;;;;;27.10;15.20;;;3.20;99.90;;;;;;5092688;28;20232;-82
2022/11/03 00:31:17;;;;;;;29.43;14.63;;;3.30;99.90;;;;;;5093111;28;20205;-83
2022/11/03 00:33:46;;;;;;;24.37;15.43;;;3.30;99.90;;;;;;5091634;28;20201;-83
2022/11/03 00:36:16;;;;;;;23.97;13.87;;;3.30;99.90;;;;;;5094878;28;20204;-83
2022/11/03 00:38:43;;;;;;;24.10;14.17;;;3.30;99.90;;;;;;5094662;28;20228;-83
2022/11/03 00:41:11;;;;;;;23.33;14.83;;;3.30;99.90;;;;;;5094227;28;20201;-82
2022/11/03 00:43:38;;;;;;;25.23;14.80;;;3.30;99.90;;;;;;5092746;28;20197;-83
2022/11/03 00:46:06;;;;;;;26.87;14.77;;;3.20;99.90;;;;;;5092427;28;20201;-82
2022/11/03 00:48:33;;;;;;;27.10;15.20;;;3.20;99.90;;;;;;5091769;28;20243;-82
2022/11/03 00:51:01;;;;;;;26.07;14.63;;;3.20;99.90;;;;;;5090099;28;20306;-82
2022/11/03 00:53:32;;;;;;;26.53;14.33;;;3.20;99.90;;;;;;5090232;28;20203;-83
2022/11/03 00:55:59;;;;;;;20.03;13.60;;;3.10;99.90;;;;;;5093497;28;20225;-83
2022/11/03 00:58:26;;;;;;;19.17;13.53;;;3.10;99.90;;;;;;5091523;28;20201;-84
2022/11/03 01:00:59;;;;;;;23.67;14.63;;;3.10;99.90;;;;;;5090847;28;20197;-82
2022/11/03 01:03:26;;;;;;;19.53;14.73;;;3.00;99.90;;;;;;5092789;28;20205;-83
2022/11/03 01:08:38;;;;;;;21.93;13.67;;;3.00;99.90;;;;;;5094210;28;20229;-83
2022/11/03 01:13:51;;;;;;;22.17;13.50;;;3.00;99.90;;;;;;5091379;28;20233;-83
2022/11/03 01:16:17;;;;;;;23.07;13.80;;;2.90;99.90;;;;;;5091247;28;20209;-83
2022/11/03 01:18:44;;;;;;;23.57;14.00;;;2.90;99.90;;;;;;5092477;28;20201;-83
2022/11/03 01:21:11;;;;;;;25.17;13.73;;;2.90;99.90;;;;;;5093534;28;20220;-83
2022/11/03 01:23:41;;;;;;;24.20;13.80;;;2.90;99.90;;;;;;5094400;28;20204;-83
2022/11/03 01:26:09;;;;;;;18.63;11.60;;;2.80;99.90;;;;;;5092876;28;20231;-82
2022/11/03 01:28:36;;;;;;;22.47;11.37;;;2.70;99.90;;;;;;5093175;28;20235;-83
2022/11/03 01:31:04;;;;;;;17.20;10.27;;;2.70;99.90;;;;;;5093471;28;20203;-83
2022/11/03 01:33:30;;;;;;;22.77;10.90;;;2.60;99.90;;;;;;5093236;28;20193;-83
2022/11/03 01:35:57;;;;;;;17.13;11.23;;;2.60;99.90;;;;;;5092999;28;20251;-82
2022/11/03 01:38:24;;;;;;;22.80;10.97;;;2.50;99.90;;;;;;5093295;28;20193;-82
2022/11/03 01:40:52;;;;;;;21.97;11.03;;;2.50;99.90;;;;;;5095996;28;20224;-82
2022/11/03 01:43:20;;;;;;;21.53;10.83;;;2.70;99.90;;;;;;5096097;28;20224;-82
2022/11/03 01:45:49;;;;;;;15.80;10.00;;;2.60;99.90;;;;;;5096796;28;20201;-82
2022/11/03 01:48:18;;;;;;;20.50;11.80;;;2.70;99.90;;;;;;5094766;28;20239;-83
2022/11/03 01:50:47;;;;;;;19.03;11.43;;;2.60;99.90;;;;;;5091601;28;20251;-82
2022/11/03 01:53:16;;;;;;;20.70;11.73;;;2.50;99.90;;;;;;5094537;28;20197;-82
2022/11/03 01:55:43;;;;;;;19.90;12.47;;;2.40;99.90;;;;;;5095897;28;20185;-82
2022/11/03 01:58:17;;;;;;;26.27;14.00;;;2.40;99.90;;;;;;5094573;28;20206;-81
2022/11/03 02:00:48;;;;;;;23.50;14.33;;;2.50;99.90;;;;;;5092621;28;20204;-81
2022/11/03 02:03:15;;;;;;;22.40;13.73;;;2.60;99.90;;;;;;5090662;28;20197;-81
2022/11/03 02:05:44;;;;;;;24.07;13.87;;;2.60;99.90;;;;;;5089181;28;20780;-80
2022/11/03 02:08:15;;;;;;;23.93;13.97;;;2.60;99.90;;;;;;5089453;28;20229;-81
2022/11/03 02:10:42;;;;;;;24.97;13.47;;;2.60;99.90;;;;;;5089317;28;20226;-82
2022/11/03 02:13:18;;;;;;;22.73;14.13;;;2.60;99.90;;;;;;5089660;28;20201;-81
2022/11/03 02:15:46;;;;;;;22.10;14.77;;;2.60;99.90;;;;;;5088895;28;20204;-81
2022/11/03 02:18:13;;;;;;;22.67;13.93;;;2.60;99.90;;;;;;5089967;28;20220;-80
2022/11/03 02:20:41;;;;;;;22.63;13.90;;;2.50;99.90;;;;;;5090179;28;20200;-81
2022/11/03 02:23:22;;;;;;;24.73;14.83;;;2.40;99.90;;;;;;5092028;28;20208;-82
2022/11/03 02:25:51;;;;;;;26.47;13.77;;;2.50;99.90;;;;;;5095300;28;20201;-82
2022/11/03 02:28:20;;;;;;;24.20;15.20;;;2.50;99.90;;;;;;5094588;28;20222;-82
2022/11/03 02:31:08;;;;;;;21.80;13.60;;;2.40;99.90;;;;;;5094144;28;20197;-81
2022/11/03 02:33:46;;;;;;;27.53;13.83;;;2.40;99.90;;;;;;5090754;28;20196;-81
2022/11/03 02:36:19;;;;;;;25.50;12.20;;;2.30;99.90;;;;;;5090814;28;20201;-81
2022/11/03 02:38:49;;;;;;;28.70;13.97;;;2.40;99.90;;;;;;5091167;28;20234;-81
2022/11/03 02:41:20;;;;;;;24.10;14.10;;;2.30;99.90;;;;;;5090446;28;20205;-81
2022/11/03 02:43:48;;;;;;;23.47;13.80;;;2.30;99.90;;;;;;5089992;28;20227;-81
2022/11/03 02:46:16;;;;;;;19.27;13.10;;;2.20;99.90;;;;;;5091747;28;20201;-82
2022/11/03 02:48:43;;;;;;;19.57;12.90;;;2.20;99.90;;;;;;5091148;28;20216;-82
2022/11/03 02:51:10;;;;;;;22.17;12.60;;;2.20;99.90;;;;;;5089284;28;20200;-82
2022/11/03 02:53:42;;;;;;;22.20;12.07;;;2.10;99.90;;;;;;5088672;28;20201;-81
2022/11/03 02:56:15;;;;;;;29.87;12.27;;;2.00;99.90;;;;;;5088858;28;20197;-81
2022/11/03 02:58:51;;;;;;;17.73;12.67;;;2.10;99.90;;;;;;5088807;28;20228;-82
2022/11/03 03:01:24;;;;;;;24.27;13.37;;;2.10;99.90;;;;;;5089676;28;20197;-82
2022/11/03 03:03:54;;;;;;;22.20;13.53;;;2.10;99.90;;;;;;5088270;28;20233;-82
2022/11/03 03:06:25;;;;;;;22.40;13.20;;;2.20;99.90;;;;;;5089623;28;20283;-82
2022/11/03 03:08:57;;;;;;;22.60;12.13;;;2.10;99.90;;;;;;5089778;28;20251;-82
2022/11/03 03:11:36;;;;;;;21.00;12.87;;;2.20;99.90;;;;;;5090514;28;20224;-82
2022/11/03 03:14:08;;;;;;;24.03;13.30;;;2.10;99.90;;;;;;5090603;28;20219;-81
2022/11/03 03:16:41;;;;;;;20.73;13.10;;;2.10;99.90;;;;;;5086583;28;20250;-81
2022/11/03 03:19:15;;;;;;;20.63;12.40;;;2.00;99.90;;;;;;5083410;28;20204;-82
2022/11/03 03:21:45;;;;;;;17.27;11.90;;;2.10;99.90;;;;;;5082891;28;20227;-82
2022/11/03 03:24:18;;;;;;;17.37;12.27;;;2.10;99.90;;;;;;5081854;28;20205;-82
2022/11/03 03:26:49;;;;;;;22.33;12.10;;;2.00;99.90;;;;;;5084958;28;20208;-82
2022/11/03 03:29:20;;;;;;;15.70;11.40;;;2.00;99.90;;;;;;5088765;28;20316;-82
2022/11/03 03:31:53;;;;;;;17.77;11.80;;;2.10;99.90;;;;;;5088683;28;20205;-81
2022/11/03 03:34:22;;;;;;;19.60;12.53;;;2.10;99.90;;;;;;5090823;28;20201;-82
2022/11/03 03:36:50;;;;;;;18.73;12.90;;;2.00;99.90;;;;;;5092533;28;20193;-82
2022/11/03 03:39:19;;;;;;;20.40;12.63;;;2.10;99.90;;;;;;5093470;28;20247;-82
2022/11/03 03:41:48;;;;;;;26.17;13.87;;;2.10;99.90;;;;;;5090425;28;20193;-82
2022/11/03 03:44:17;;;;;;;21.60;13.37;;;2.00;99.90;;;;;;5095151;28;20205;-81
2022/11/03 03:46:50;;;;;;;20.90;12.20;;;2.00;99.90;;;;;;5096403;28;20193;-81
2022/11/03 03:49:16;;;;;;;20.23;12.47;;;2.00;99.90;;;;;;5096847;28;20231;-81
2022/11/03 03:51:44;;;;;;;21.47;13.47;;;2.00;99.90;;;;;;5096650;28;20227;-81
2022/11/03 03:54:10;;;;;;;21.60;13.10;;;2.00;99.90;;;;;;5096397;28;20193;-82
2022/11/03 03:56:42;;;;;;;25.43;13.63;;;2.10;99.90;;;;;;5097568;28;20185;-82
2022/11/03 03:59:08;;;;;;;22.50;12.57;;;2.10;99.90;;;;;;5099283;28;20227;-82
2022/11/03 04:01:36;;;;;;;22.70;12.57;;;2.00;99.90;;;;;;5098377;28;20197;-82
2022/11/03 04:04:03;;;;;;;19.30;12.47;;;2.00;99.90;;;;;;5096260;28;20255;-82
2022/11/03 04:06:30;;;;;;;22.50;12.63;;;1.90;99.90;;;;;;5096573;28;20197;-82
2022/11/03 04:08:56;;;;;;;28.13;13.43;;;2.00;99.90;;;;;;5095834;28;20221;-82
2022/11/03 04:22:25;;;;;;;32.10;15.27;;;2.10;99.90;;;;;;5094750;28;20208;-81
2022/11/03 04:24:52;;;;;;;31.73;15.87;;;2.10;99.90;;;;;;5091335;28;20223;-82
2022/11/03 04:27:28;;;;;;;26.50;13.63;;;1.90;99.90;;;;;;5092901;28;20193;-81
2022/11/03 04:29:58;;;;;;;26.33;12.73;;;1.90;99.90;;;;;;5091010;28;20237;-82
2022/11/03 04:32:26;;;;;;;24.73;12.60;;;1.90;99.90;;;;;;5092818;28;20265;-81
2022/11/03 04:34:53;;;;;;;21.73;13.30;;;1.90;99.90;;;;;;5092799;28;20201;-82
2022/11/03 04:37:19;;;;;;;25.30;13.37;;;2.00;99.90;;;;;;5092202;28;20201;-81
2022/11/03 04:39:46;;;;;;;23.00;13.33;;;2.00;99.90;;;;;;5092563;28;20223;-81
2022/11/03 04:42:16;;;;;;;19.80;12.70;;;2.00;99.90;;;;;;5093028;28;20231;-82
2022/11/03 04:44:43;;;;;;;20.03;12.40;;;2.00;99.90;;;;;;5093237;28;20205;-81
2022/11/03 04:47:13;;;;;;;27.77;14.20;;;2.00;99.90;;;;;;5093193;28;20224;-81
2022/11/03 04:49:41;;;;;;;22.53;13.50;;;1.90;99.90;;;;;;5092266;28;20215;-80
2022/11/03 04:52:15;;;;;;;20.50;13.47;;;1.90;99.90;;;;;;5091246;28;20205;-81
2022/11/03 04:54:41;;;;;;;26.33;14.03;;;1.80;99.90;;;;;;5091501;28;20201;-81
2022/11/03 04:57:12;;;;;;;24.37;13.43;;;1.80;99.90;;;;;;5090138;28;20220;-80
2022/11/03 04:59:38;;;;;;;22.03;13.63;;;1.80;99.90;;;;;;5088516;28;20228;-80
2022/11/03 05:02:11;;;;;;;22.27;12.77;;;1.80;99.90;;;;;;5086687;28;20212;-80
2022/11/03 05:04:38;;;;;;;20.90;12.40;;;1.70;99.90;;;;;;5085192;28;20255;-81
2022/11/03 05:07:23;;;;;;;22.03;12.77;;;1.80;99.90;;;;;;5083310;28;20652;-81
2022/11/03 05:09:51;;;;;;;20.87;13.73;;;1.80;99.90;;;;;;5085086;28;20225;-80
2022/11/03 05:12:19;;;;;;;23.17;12.83;;;1.90;99.90;;;;;;5085722;28;20201;-81
2022/11/03 05:14:45;;;;;;;22.27;12.37;;;1.90;99.90;;;;;;5078863;28;20606;-80
2022/11/03 05:17:21;;;;;;;17.60;12.10;;;1.80;99.90;;;;;;5077636;28;20209;-80
2022/11/03 05:19:48;;;;;;;21.13;13.83;;;1.80;99.90;;;;;;5077359;28;20239;-81
2022/11/03 05:22:20;;;;;;;19.67;12.67;;;1.80;99.90;;;;;;5077350;28;20251;-80
2022/11/03 05:24:46;;;;;;;20.50;12.60;;;1.90;99.90;;;;;;5077826;28;20598;-80
2022/11/03 05:27:19;;;;;;;22.10;13.50;;;1.80;99.90;;;;;;5076705;28;20205;-80
2022/11/03 05:29:47;;;;;;;23.30;13.17;;;1.80;99.90;;;;;;5077495;28;20263;-80
2022/11/03 05:32:18;;;;;;;17.87;11.87;;;1.80;99.90;;;;;;5078008;28;20197;-80
2022/11/03 05:34:46;;;;;;;22.23;13.57;;;1.80;99.90;;;;;;5077912;28;20204;-81
2022/11/03 05:37:25;;;;;;;21.10;12.47;;;1.90;99.90;;;;;;5077712;28;20257;-80
2022/11/03 05:39:53;;;;;;;22.13;12.70;;;1.90;99.90;;;;;;5077674;28;20246;-81
2022/11/03 05:42:31;;;;;;;19.30;13.20;;;2.00;99.90;;;;;;5078415;28;20596;-81
2022/11/03 05:44:58;;;;;;;21.73;12.97;;;1.90;99.90;;;;;;5077380;28;20246;-80
2022/11/03 05:47:30;;;;;;;18.87;12.37;;;1.90;99.90;;;;;;5077232;28;20243;-80
2022/11/03 05:50:11;;;;;;;22.37;12.47;;;2.00;99.90;;;;;;5077978;28;20306;-80
2022/11/03 05:52:39;;;;;;;19.00;11.70;;;2.00;99.90;;;;;;5076940;28;20197;-81
2022/11/03 05:55:17;;;;;;;24.07;12.63;;;1.90;99.90;;;;;;5076515;28;20201;-80
2022/11/03 05:57:43;;;;;;;20.13;12.77;;;1.90;99.90;;;;;;5077328;28;20201;-80
2022/11/03 06:00:25;;;;;;;20.90;11.97;;;1.90;99.90;;;;;;5076097;28;20193;-80
2022/11/03 06:02:52;;;;;;;23.43;12.83;;;1.90;99.90;;;;;;5076311;28;20258;-80
2022/11/03 06:05:21;;;;;;;26.73;14.63;;;2.00;99.90;;;;;;5076186;28;20237;-79
2022/11/03 06:07:53;;;;;;;21.83;14.57;;;2.00;99.90;;;;;;5076323;28;20251;-80
2022/11/03 06:10:26;;;;;;;22.57;14.07;;;2.00;99.90;;;;;;5076630;28;20262;-81
2022/11/03 06:12:56;;;;;;;26.30;14.47;;;2.00;99.90;;;;;;5076709;28;20197;-80
2022/11/03 06:15:29;;;;;;;25.73;14.27;;;1.90;99.90;;;;;;5077056;28;20201;-80
2022/11/03 06:17:56;;;;;;;24.13;14.00;;;1.90;99.90;;;;;;5081381;28;20229;-80
2022/11/03 06:20:24;;;;;;;21.43;14.40;;;2.00;99.90;;;;;;5082866;28;20197;-80
2022/11/03 06:22:54;;;;;;;25.33;14.57;;;2.00;99.90;;;;;;5082442;28;20205;-80
2022/11/03 06:25:26;;;;;;;20.60;14.70;;;2.10;99.90;;;;;;5080478;28;20207;-80
2022/11/03 06:27:54;;;;;;;25.77;15.10;;;2.10;99.90;;;;;;5080558;28;20201;-80
2022/11/03 06:30:25;;;;;;;23.70;14.53;;;2.10;99.90;;;;;;5081690;28;20626;-80
2022/11/03 06:32:52;;;;;;;24.17;15.77;;;2.20;99.90;;;;;;5082243;28;20552;-80
2022/11/03 06:35:19;;;;;;;26.90;16.70;;;2.20;99.90;;;;;;5079933;28;20204;-80
2022/11/03 06:37:46;;;;;;;25.60;15.90;;;2.30;99.90;;;;;;5080144;28;20602;-80
2022/11/03 06:40:32;;;;;;;25.90;16.37;;;2.30;99.90;;;;;;5081328;28;20793;-81
2022/11/03 06:42:59;;;;;;;24.80;16.40;;;2.40;99.90;;;;;;5081118;28;20205;-81
2022/11/03 06:45:26;;;;;;;27.40;18.13;;;2.50;99.90;;;;;;5080022;28;20196;-80
2022/11/03 06:47:54;;;;;;;27.30;17.27;;;2.60;99.90;;;;;;5080200;28;20291;-80
2022/11/03 06:50:23;;;;;;;27.03;17.67;;;2.70;99.90;;;;;;5080930;28;20229;-81
2022/11/03 06:52:51;;;;;;;25.27;17.07;;;2.80;99.90;;;;;;5081097;28;20221;-80
2022/11/03 06:55:23;;;;;;;24.60;16.17;;;2.90;99.90;;;;;;5081260;28;20713;-80
2022/11/03 06:57:55;;;;;;;25.13;16.13;;;3.00;99.90;;;;;;5084053;28;20224;-80
2022/11/03 07:00:24;;;;;;;32.50;16.77;;;3.10;99.90;;;;;;5081667;28;20251;-80
2022/11/03 07:02:57;;;;;;;22.67;14.77;;;3.20;99.90;;;;;;5084951;28;20247;-81
2022/11/03 07:05:26;;;;;;;22.20;15.10;;;3.30;99.90;;;;;;5088518;28;20255;-80
2022/11/03 07:07:57;;;;;;;28.97;15.90;;;3.40;99.90;;;;;;5088058;28;20197;-80
2022/11/03 07:10:24;;;;;;;25.77;17.27;;;3.60;99.90;;;;;;5083411;28;20299;-80
2022/11/03 07:12:54;;;;;;;25.47;16.13;;;3.70;99.90;;;;;;5081423;28;20201;-81
2022/11/03 07:15:26;;;;;;;26.73;16.07;;;3.80;99.90;;;;;;5078480;28;20614;-81
2022/11/03 07:17:53;;;;;;;25.00;16.47;;;3.90;99.90;;;;;;5078009;28;20197;-81
2022/11/03 07:20:20;;;;;;;27.80;17.20;;;4.10;99.90;;;;;;5076633;28;20279;-83
2022/11/03 07:22:48;;;;;;;24.70;16.57;;;4.20;99.90;;;;;;5076768;28;20208;-84
2022/11/03 07:25:18;;;;;;;23.40;17.23;;;4.30;99.90;;;;;;5076597;28;20197;-86
2022/11/03 07:27:48;;;;;;;24.13;17.00;;;4.40;99.90;;;;;;5076313;28;20200;-83
2022/11/03 07:30:20;;;;;;;24.17;16.90;;;4.50;99.90;;;;;;5076114;28;20224;-87
2022/11/03 07:32:49;;;;;;;23.07;15.53;;;4.60;99.90;;;;;;5075898;28;20545;-85
2022/11/03 07:35:29;;;;;;;24.10;16.60;;;4.80;99.90;;;;;;5076640;28;20197;-83
2022/11/03 07:37:57;;;;;;;24.37;16.50;;;5.00;99.90;;;;;;5076223;28;20611;-85
2022/11/03 07:40:26;;;;;;;26.03;16.90;;;5.10;99.90;;;;;;5076155;28;20250;-85
2022/11/03 07:42:57;;;;;;;29.17;16.90;;;5.30;99.90;;;;;;5076295;28;20291;-85
2022/11/03 07:45:38;;;;;;;28.80;16.30;;;5.40;99.90;;;;;;5079196;28;20254;-86
2022/11/03 07:48:20;;;;;;;29.57;17.87;;;5.60;99.90;;;;;;5079800;28;20211;-86
2022/11/03 07:50:47;;;;;;;28.20;16.53;;;5.70;99.90;;;;;;5077038;28;20235;-85
2022/11/03 07:53:19;;;;;;;24.83;16.40;;;5.90;99.90;;;;;;5075375;28;20579;-85
2022/11/03 07:55:46;;;;;;;25.87;17.13;;;6.00;99.90;;;;;;5075355;28;20193;-84
2022/11/03 07:58:27;;;;;;;27.83;16.13;;;6.20;99.90;;;;;;5075455;28;20250;-82
2022/11/03 08:01:00;;;;;;;27.37;17.10;;;6.40;99.90;;;;;;5075542;28;20201;-84
2022/11/03 08:03:41;;;;;;;28.70;16.97;;;6.60;99.90;;;;;;5075226;28;20663;-83
2022/11/03 08:06:08;;;;;;;24.00;15.63;;;6.80;99.90;;;;;;5075329;28;20656;-80
2022/11/03 08:08:34;;;;;;;24.00;15.20;;;7.10;99.90;;;;;;5075270;28;20204;-80
2022/11/03 08:11:01;;;;;;;25.03;15.00;;;7.30;99.90;;;;;;5075235;28;20221;-82
2022/11/03 08:13:28;;;;;;;27.60;15.40;;;7.60;99.90;;;;;;5074723;28;20243;-80
2022/11/03 08:15:55;;;;;;;22.27;15.00;;;7.80;99.90;;;;;;5074536;28;20205;-80
2022/11/03 08:18:22;;;;;;;22.27;14.03;;;8.00;99.90;;;;;;5075337;28;20247;-81
2022/11/03 08:20:49;;;;;;;22.27;13.70;;;8.20;99.90;;;;;;5074972;28;20252;-81
2022/11/03 08:23:15;;;;;;;16.70;12.33;;;8.50;99.90;;;;;;5074923;28;20248;-81
2022/11/03 08:25:42;;;;;;;18.40;11.80;;;8.70;99.90;;;;;;5074816;28;20652;-80
2022/11/03 08:28:09;;;;;;;17.83;11.33;;;8.90;99.90;;;;;;5074791;28;20648;-81
2022/11/03 08:30:35;;;;;;;15.77;11.03;;;9.10;99.90;;;;;;5074954;28;20224;-81
2022/11/03 08:33:03;;;;;;;13.33;10.23;;;9.40;99.90;;;;;;5074712;28;20197;-80
2022/11/03 08:35:30;;;;;;;13.63;9.77;;;9.70;99.90;;;;;;5074600;28;20606;-81
2022/11/03 08:37:57;;;;;;;13.43;9.90;;;9.90;99.90;;;;;;5074798;28;20197;-81
2022/11/03 08:40:23;;;;;;;15.53;9.33;;;10.10;99.90;;;;;;5074711;28;20197;-81
2022/11/03 08:42:50;;;;;;;13.90;9.50;;;10.40;99.90;;;;;;5074579;28;20201;-81
2022/11/03 08:45:17;;;;;;;12.47;9.40;;;10.50;99.90;;;;;;5074565;28;20259;-81
2022/11/03 08:47:43;;;;;;;13.83;8.90;;;10.90;99.90;;;;;;5074421;28;20549;-80
2022/11/03 08:50:11;;;;;;;15.10;9.73;;;11.10;99.90;;;;;;5074191;28;20232;-80
2022/11/03 08:52:38;;;;;;;15.00;8.53;;;11.50;99.90;;;;;;5074317;28;20597;-80
2022/11/03 08:55:05;;;;;;;12.70;8.53;;;11.70;99.90;;;;;;5074244;28;20648;-80
2022/11/03 08:57:32;;;;;;;14.83;8.80;;;11.90;99.90;;;;;;5074272;28;20601;-81
2022/11/03 08:59:59;;;;;;;18.00;8.30;;;12.30;99.90;;;;;;5074139;28;20212;-80
2022/11/03 09:02:25;;;;;;;10.23;7.93;;;12.60;99.90;;;;;;5074187;28;20251;-79
2022/11/03 09:04:52;;;;;;;15.90;9.13;;;12.60;99.90;;;;;;5073888;28;20287;-79
2022/11/03 09:07:20;;;;;;;12.67;8.23;;;12.50;99.90;;;;;;5074274;28;20197;-79
2022/11/03 09:09:46;;;;;;;11.13;8.53;;;12.70;99.90;;;;;;5076638;28;20668;-79
2022/11/03 09:12:13;;;;;;;11.50;8.63;;;12.70;99.90;;;;;;5074018;28;20197;-79
2022/11/03 09:14:40;;;;;;;15.63;9.33;;;12.60;99.90;;;;;;5074000;28;20266;-80
2022/11/03 09:17:06;;;;;;;12.47;9.10;;;12.40;99.90;;;;;;5073871;28;20197;-79
2022/11/03 09:19:33;;;;;;;11.13;9.03;;;12.40;99.90;;;;;;5073654;28;20709;-80
2022/11/03 09:22:00;;;;;;;13.87;9.07;;;12.20;99.90;;;;;;5073886;28;20227;-80
2022/11/03 09:24:29;;;;;;;12.43;9.90;;;12.50;99.90;;;;;;5073794;28;20578;-80
2022/11/03 09:26:56;;;;;;;11.48;9.25;;;12.80;99.90;;;;;;5073452;28;20200;-80
2022/11/03 09:29:22;;;;;;;11.57;8.75;;;13.10;99.90;;;;;;5073487;28;20197;-80
2022/11/03 09:31:49;;;;;;;10.60;8.40;;;13.40;99.90;;;;;;5073471;28;20228;-81
2022/11/03 09:34:16;;;;;;;11.43;8.30;;;13.30;99.90;;;;;;5073740;28;20196;-81
2022/11/03 09:36:42;;;;;;;12.30;8.45;;;13.60;99.90;;;;;;5073333;28;20599;-81
2022/11/03 09:39:09;;;;;;;9.98;8.85;;;13.80;99.90;;;;;;5073515;28;20193;-81
2022/11/03 09:41:37;;;;;;;12.30;8.70;;;13.90;99.90;;;;;;5073289;28;20675;-82
2022/11/03 09:44:04;;;;;;;9.35;8.25;;;13.80;99.90;;;;;;5073158;28;20193;-81
2022/11/03 09:46:31;;;;;;;11.98;8.85;;;14.00;99.90;;;;;;5073559;28;20197;-81
2022/11/03 09:48:59;;;;;;;9.60;8.60;;;14.00;99.90;;;;;;5073265;28;20679;-81
2022/11/03 09:51:27;;;;;;;10.43;8.40;;;13.80;99.90;;;;;;5073260;28;20579;-81
2022/11/03 09:53:57;;;;;;;10.45;8.38;;;13.80;99.90;;;;;;5073273;28;20221;-79
2022/11/03 09:56:25;;;;;;;9.90;8.18;;;14.70;99.90;;;;;;5073374;28;20201;-81
2022/11/03 09:58:53;;;;;;;9.90;8.90;;;14.90;99.90;;;;;;5073210;28;20204;-80
2022/11/03 10:01:20;;;;;;;12.32;9.48;;;15.40;99.90;;;;;;5073211;28;20656;-80
2022/11/03 10:03:46;;;;;;;11.60;9.18;;;15.80;99.90;;;;;;5073252;28;20242;-80
2022/11/03 10:06:15;;;;;;;9.13;8.15;;;16.10;99.90;;;;;;5073238;28;20258;-80
2022/11/03 10:08:44;;;;;;;11.27;9.13;;;16.20;99.90;;;;;;5073111;28;20318;-80
2022/11/03 10:11:11;;;;;;;10.23;9.05;;;16.90;99.90;;;;;;5072866;28;20237;-80
2022/11/03 10:13:41;;;;;;;9.73;8.75;;;17.50;99.90;;;;;;5073140;28;20201;-81
2022/11/03 10:16:11;;;;;;;9.32;8.32;;;17.80;99.90;;;;;;5072898;28;20196;-80
2022/11/03 10:18:38;;;;;;;9.38;8.38;;;18.50;99.90;;;;;;5073004;28;20193;-80
2022/11/03 10:21:06;;;;;;;10.45;9.02;;;19.10;99.90;;;;;;5072855;28;20205;-80
2022/11/03 10:23:33;;;;;;;12.70;9.50;;;19.20;99.90;;;;;;5072869;28;20197;-80
2022/11/03 10:26:09;;;;;;;10.68;9.65;;;18.90;99.90;;;;;;5072898;28;20619;-82
2022/11/03 10:28:36;;;;;;;11.85;9.38;;;19.70;99.90;;;;;;5073067;28;20291;-81
2022/11/03 10:31:07;;;;;;;9.30;8.38;;;19.50;99.90;;;;;;5072874;28;20278;-81
2022/11/03 10:33:37;;;;;;;11.50;8.88;;;20.00;99.90;;;;;;5073119;28;20207;-81
2022/11/03 10:36:20;;;;;;;9.98;8.70;;;20.60;99.90;;;;;;5072861;28;20196;-79
2022/11/03 10:38:47;;;;;;;9.70;8.70;;;21.20;99.90;;;;;;5072322;28;20201;-79
2022/11/03 10:41:16;;;;;;;9.90;8.65;;;22.10;99.90;;;;;;5072862;28;20287;-80
2022/11/03 10:43:44;;;;;;;10.70;8.68;;;22.80;99.90;;;;;;5072649;28;20592;-80
2022/11/03 10:46:15;;;;;;;10.48;9.00;;;22.70;99.90;;;;;;5072933;28;20201;-81
2022/11/03 10:48:43;;;;;;;11.30;9.23;;;21.70;99.90;;;;;;5072500;28;20204;-81
2022/11/03 10:51:12;;;;;;;14.43;10.77;;;21.60;99.90;;;;;;5072650;28;20331;-81
2022/11/03 10:53:41;;;;;;;11.48;10.07;;;18.90;99.90;;;;;;5072486;28;20243;-81
2022/11/03 10:56:08;;;;;;;12.13;10.40;;;18.90;99.90;;;;;;5072574;28;20224;-81
2022/11/03 10:58:36;;;;;;;11.05;10.05;;;18.00;99.90;;;;;;5072577;28;20247;-79
2022/11/03 11:01:04;;;;;;;11.95;10.77;;;17.90;99.90;;;;;;5072344;28;20301;-81
2022/11/03 11:03:31;;;;;;;13.35;10.02;;;17.80;99.90;;;;;;5072694;28;20207;-80
2022/11/03 11:05:59;;;;;;;13.32;10.85;;;18.00;99.90;;;;;;5072720;28;20197;-81
2022/11/03 11:08:25;;;;;;;12.43;11.00;;;17.60;99.90;;;;;;5072790;28;20193;-81
2022/11/03 11:10:54;;;;;;;13.02;11.70;;;17.60;99.90;;;;;;5072131;28;20691;-81
2022/11/03 11:13:28;;;;;;;13.18;11.77;;;16.70;99.90;;;;;;5072459;28;20197;-80
2022/11/03 11:15:56;;;;;;;14.13;11.95;;;16.20;99.90;;;;;;5072459;28;20292;-80
2022/11/03 11:19:00;;;;;;;14.77;11.25;;;16.40;99.90;;;;;;5072241;28;20727;-79
2022/11/03 11:22:08;;;;;;;13.35;11.88;;;17.40;99.90;;;;;;5070324;28;20255;-81
2022/11/03 11:25:01;;;;;;;14.77;11.38;;;16.60;99.90;;;;;;5071135;28;20339;-80
2022/11/03 11:27:57;;;;;;;14.80;12.23;;;17.00;99.90;;;;;;5063799;28;20228;-80
2022/11/03 11:31:03;;;;;;;15.77;12.80;;;16.90;99.90;;;;;;5037314;28;20250;-80
2022/11/03 11:33:33;;;;;;;17.33;13.57;;;16.70;99.90;;;;;;5072040;28;20564;-80
2022/11/03 11:36:25;;;;;;;13.93;11.80;;;15.60;99.90;;;;;;5072188;28;20201;-80
2022/11/03 11:39:02;;;;;;;13.57;12.13;;;15.80;99.90;;;;;;5072071;28;20204;-80
2022/11/03 11:42:06;;;;;;;19.50;12.82;;;16.30;99.90;;;;;;5072237;28;20220;-80
2022/11/03 11:44:53;;;;;;;15.52;12.85;;;15.70;99.90;;;;;;5071975;28;20204;-80
2022/11/03 11:47:31;;;;;;;14.13;12.65;;;15.10;99.90;;;;;;5071887;28;20250;-80
2022/11/03 11:50:26;;;;;;;18.00;14.40;;;14.40;99.90;;;;;;5075285;28;20253;-80
2022/11/03 11:52:59;;;;;;;14.45;12.95;;;14.30;99.90;;;;;;5075447;28;20197;-80
2022/11/03 11:55:31;;;;;;;18.40;14.23;;;14.60;99.90;;;;;;5075433;28;20556;-79
2022/11/03 11:58:00;;;;;;;14.63;12.83;;;14.50;99.90;;;;;;5075702;28;20560;-81
2022/11/03 12:00:30;;;;;;;17.90;14.23;;;14.40;99.90;;;;;;5075804;28;20250;-80
2022/11/03 12:02:59;;;;;;;17.77;13.07;;;14.20;99.90;;;;;;5075442;28;20193;-81
2022/11/03 12:05:28;;;;;;;17.08;13.43;;;14.40;99.90;;;;;;5075527;28;20237;-80
2022/11/03 12:07:55;;;;;;;14.53;12.80;;;14.30;99.90;;;;;;5075199;28;20201;-80
2022/11/03 12:10:25;;;;;;;14.50;12.77;;;13.70;99.90;;;;;;5075319;28;20668;-80
2022/11/03 12:12:52;;;;;;;14.70;13.07;;;13.20;99.90;;;;;;5075345;28;20212;-80
2022/11/03 12:16:04;;;;;;;13.13;11.83;;;12.90;99.90;;;;;;5075240;28;20197;-80
2022/11/03 12:18:35;;;;;;;14.70;11.90;;;13.00;99.90;;;;;;5038814;28;20274;-79
2022/11/03 12:21:03;;;;;;;15.33;12.77;;;12.90;99.90;;;;;;5075164;28;20208;-80
2022/11/03 12:23:38;;;;;;;16.07;12.53;;;12.80;99.90;;;;;;5074855;28;20652;-80
2022/11/03 12:26:05;;;;;;;13.70;11.73;;;12.60;99.90;;;;;;5074887;28;20199;-81
2022/11/03 12:28:34;;;;;;;15.63;11.77;;;12.50;99.90;;;;;;5074825;28;20367;-81
2022/11/03 12:31:01;;;;;;;16.80;11.93;;;12.50;99.90;;;;;;5074722;28;20233;-81
2022/11/03 12:33:28;;;;;;;14.00;11.67;;;12.30;99.90;;;;;;5075050;28;20288;-80
2022/11/03 12:35:57;;;;;;;13.27;11.67;;;12.50;99.90;;;;;;5074859;28;20204;-81
2022/11/03 12:38:24;;;;;;;12.40;11.10;;;12.40;99.90;;;;;;5075067;28;20193;-81
2022/11/03 12:40:52;;;;;;;13.47;11.23;;;12.60;99.90;;;;;;5074761;28;20315;-81
2022/11/03 12:43:19;;;;;;;12.53;10.93;;;12.80;99.90;;;;;;5074375;28;20228;-81
2022/11/03 12:45:45;;;;;;;12.50;11.07;;;12.50;99.90;;;;;;5074765;28;20201;-81
2022/11/03 12:48:12;;;;;;;12.27;10.67;;;12.60;99.90;;;;;;5074798;28;20200;-81
2022/11/03 12:50:39;;;;;;;12.83;11.10;;;12.10;99.90;;;;;;5074645;28;20201;-81
2022/11/03 12:53:07;;;;;;;11.43;10.23;;;12.20;99.90;;;;;;5074905;28;20200;-81
2022/11/03 12:55:34;;;;;;;11.70;10.50;;;12.30;99.90;;;;;;5074532;28;20660;-81
2022/11/03 12:58:02;;;;;;;12.00;10.00;;;12.20;99.90;;;;;;5074395;28;20201;-81
2022/11/03 13:00:28;;;;;;;11.17;10.07;;;12.20;99.90;;;;;;5074085;28;20254;-81
2022/11/03 13:02:55;;;;;;;11.97;10.60;;;12.30;99.90;;;;;;5075777;28;20193;-81
2022/11/03 13:05:22;;;;;;;13.10;10.60;;;12.30;99.90;;;;;;5074941;28;20700;-81
2022/11/03 13:07:48;;;;;;;13.57;9.50;;;12.20;99.90;;;;;;5075608;28;20550;-80